Time;durP1;ratioP1;P1;durP2;ratioP2;P2;SDS_P1;SDS_P2;PMS_P1;PMS_P2;Temp;Humidity;BMP_temperature;BMP_pressure;BME280_temperature;BME280_humidity;BME280_pressure;Samples;Min_cycle;Max_cycle;Signal;HPM_P1;HPM_P2
2020/12/22 00:02:03;;;;;;;0.50;0.50;;;6.20;99.90;;;;;;4951970;29;20240;-87
2020/12/22 00:04:29;;;;;;;0.50;0.50;;;6.20;99.90;;;;;;4952303;29;20218;-87
2020/12/22 00:06:57;;;;;;;0.40;0.40;;;7.20;99.90;;;;;;4952276;29;20679;-87
2020/12/22 00:09:23;;;;;;;0.50;0.50;;;6.60;99.90;;;;;;4952669;29;20204;-87
2020/12/22 00:11:53;;;;;;;0.50;0.50;;;6.30;99.90;;;;;;4953036;29;20223;-88
2020/12/22 00:14:19;;;;;;;0.50;0.50;;;6.30;99.90;;;;;;4952611;29;20223;-88
2020/12/22 00:16:49;;;;;;;0.40;0.40;;;6.60;99.90;;;;;;4952325;29;20204;-88
2020/12/22 00:19:15;;;;;;;0.50;0.50;;;6.30;99.90;;;;;;4952377;29;20203;-88
2020/12/22 00:21:41;;;;;;;0.50;0.50;;;6.30;99.90;;;;;;4952183;29;20214;-88
2020/12/22 00:24:08;;;;;;;0.50;0.50;;;6.30;99.90;;;;;;4952303;29;20218;-88
2020/12/22 00:26:34;;;;;;;0.50;0.50;;;6.30;99.90;;;;;;4952157;29;20212;-88
2020/12/22 00:29:00;;;;;;;0.47;0.47;;;6.30;99.90;;;;;;4952116;29;20210;-88
2020/12/22 00:31:26;;;;;;;0.50;0.50;;;6.20;99.90;;;;;;4952399;29;20237;-88
2020/12/22 00:33:55;;;;;;;0.50;0.50;;;6.30;99.90;;;;;;4952155;29;20231;-87
2020/12/22 00:36:23;;;;;;;0.50;0.50;;;6.20;99.90;;;;;;4952953;29;20890;-89
2020/12/22 00:38:49;;;;;;;0.50;0.50;;;6.30;99.90;;;;;;4952258;29;20216;-88
2020/12/22 00:41:16;;;;;;;0.40;0.40;;;6.30;99.90;;;;;;4952366;29;20322;-88
2020/12/22 00:43:43;;;;;;;0.50;0.50;;;6.20;99.90;;;;;;4951861;29;20203;-88
2020/12/22 00:46:14;;;;;;;0.50;0.50;;;6.30;99.90;;;;;;4953727;28;20207;-88
2020/12/22 00:48:46;;;;;;;0.40;0.40;;;6.30;99.90;;;;;;4955518;29;20208;-89
2020/12/22 00:51:38;;;;;;;0.40;0.40;;;7.40;99.90;;;;;;4955013;29;20227;-90
2020/12/22 00:57:18;;;;;;;0.43;0.43;;;6.30;99.90;;;;;;4947930;29;20362;-89
2020/12/22 01:00:01;;;;;;;0.50;0.50;;;6.40;99.90;;;;;;4954949;29;20289;-89
2020/12/22 01:02:28;;;;;;;0.50;0.50;;;6.00;99.90;;;;;;4954504;29;20273;-89
2020/12/22 01:05:01;;;;;;;0.40;0.40;;;6.20;99.90;;;;;;4954882;29;20222;-89
2020/12/22 01:07:31;;;;;;;0.40;0.40;;;5.80;99.90;;;;;;4955281;29;20207;-89
2020/12/22 01:10:00;;;;;;;0.50;0.50;;;6.40;99.90;;;;;;4955207;29;20212;-88
2020/12/22 01:12:27;;;;;;;0.47;0.47;;;6.90;99.90;;;;;;4955269;29;20267;-89
2020/12/22 01:14:55;;;;;;;0.50;0.50;;;6.40;99.90;;;;;;4954802;29;20207;-88
2020/12/22 01:17:22;;;;;;;0.40;0.40;;;6.40;99.90;;;;;;4955243;29;20207;-89
2020/12/22 01:19:48;;;;;;;0.43;0.43;;;6.00;99.90;;;;;;4954932;29;20210;-88
2020/12/22 01:22:15;;;;;;;0.50;0.50;;;7.50;99.90;;;;;;4955208;29;20236;-88
2020/12/22 01:24:42;;;;;;;0.40;0.40;;;6.60;99.90;;;;;;4954911;29;20212;-88
2020/12/22 01:27:13;;;;;;;0.40;0.40;;;7.40;99.90;;;;;;4954989;29;20517;-89
2020/12/22 01:29:40;;;;;;;0.40;0.40;;;6.40;99.90;;;;;;4955132;29;20225;-88
2020/12/22 01:32:06;;;;;;;0.40;0.40;;;6.60;99.90;;;;;;4955448;29;20199;-89
2020/12/22 01:34:35;;;;;;;0.40;0.40;;;6.50;99.90;;;;;;4955208;29;20238;-89
2020/12/22 01:37:03;;;;;;;0.50;0.50;;;6.50;99.90;;;;;;4954976;29;20244;-88
2020/12/22 01:39:33;;;;;;;0.40;0.40;;;6.30;99.90;;;;;;4954860;29;20208;-89
2020/12/22 01:42:06;;;;;;;0.45;0.45;;;6.80;99.90;;;;;;4955473;29;20211;-88
2020/12/22 01:44:35;;;;;;;0.50;0.50;;;6.50;99.90;;;;;;4954943;29;20242;-89
2020/12/22 01:47:13;;;;;;;0.50;0.50;;;7.90;99.90;;;;;;4955339;29;20207;-88
2020/12/22 01:49:42;;;;;;;0.43;0.43;;;7.80;99.90;;;;;;4954426;29;20290;-89
2020/12/22 01:52:08;;;;;;;0.40;0.40;;;6.50;99.90;;;;;;4954942;29;20294;-89
2020/12/22 01:54:39;;;;;;;0.50;0.50;;;6.30;99.90;;;;;;4954077;29;20234;-89
2020/12/22 01:57:22;;;;;;;0.43;0.43;;;6.80;99.90;;;;;;4954469;28;20298;-89
2020/12/22 01:59:53;;;;;;;0.40;0.40;;;7.50;99.90;;;;;;4954481;29;20278;-89
2020/12/22 02:02:20;;;;;;;0.40;0.40;;;6.60;99.90;;;;;;4954242;29;20255;-89
2020/12/22 02:04:48;;;;;;;0.45;0.45;;;6.80;99.90;;;;;;4954419;29;20251;-89
2020/12/22 02:07:15;;;;;;;0.40;0.40;;;6.70;99.90;;;;;;4954561;29;20231;-89
2020/12/22 02:09:49;;;;;;;0.40;0.40;;;6.50;99.90;;;;;;4953943;29;20874;-89
2020/12/22 02:12:19;;;;;;;0.40;0.40;;;6.40;99.90;;;;;;4954106;29;20608;-89
2020/12/22 02:14:46;;;;;;;0.40;0.40;;;6.40;99.90;;;;;;4953720;28;20251;-89
2020/12/22 02:17:13;;;;;;;0.40;0.40;;;6.70;99.90;;;;;;4953584;29;20211;-89
2020/12/22 02:19:39;;;;;;;0.40;0.40;;;6.30;99.90;;;;;;4954336;29;20212;-89
2020/12/22 02:22:07;;;;;;;0.40;0.40;;;6.80;99.90;;;;;;4954024;28;20216;-89
2020/12/22 02:24:37;;;;;;;0.40;0.40;;;6.80;99.90;;;;;;4953770;29;20264;-88
2020/12/22 02:27:04;;;;;;;0.40;0.40;;;6.80;99.90;;;;;;4953953;29;20555;-88
2020/12/22 02:29:53;;;;;;;0.50;0.50;;;7.00;99.90;;;;;;4953787;29;20207;-89
2020/12/22 02:32:24;;;;;;;0.40;0.40;;;6.90;99.90;;;;;;4953683;29;20236;-90
2020/12/22 02:34:53;;;;;;;0.40;0.40;;;6.90;99.90;;;;;;4952854;29;20228;-88
2020/12/22 02:37:22;;;;;;;0.40;0.40;;;6.80;99.90;;;;;;4953378;29;20208;-88
2020/12/22 02:39:48;;;;;;;0.40;0.40;;;7.00;99.90;;;;;;4953543;29;20212;-89
2020/12/22 02:42:15;;;;;;;0.40;0.40;;;7.30;99.90;;;;;;4953421;29;20290;-88
2020/12/22 02:44:44;;;;;;;0.47;0.47;;;6.90;99.90;;;;;;4953714;29;20223;-88
2020/12/22 02:47:12;;;;;;;0.40;0.40;;;7.00;99.90;;;;;;4953864;29;20211;-88
2020/12/22 02:49:39;;;;;;;0.40;0.40;;;6.90;99.90;;;;;;4953115;29;20211;-88
2020/12/22 02:52:05;;;;;;;0.40;0.40;;;6.90;99.90;;;;;;4953608;29;20222;-88
2020/12/22 02:54:37;;;;;;;0.40;0.40;;;6.90;99.90;;;;;;4952991;29;20738;-88
2020/12/22 02:57:04;;;;;;;0.50;0.50;;;7.00;99.90;;;;;;4953224;29;20203;-88
2020/12/22 02:59:31;;;;;;;0.43;0.43;;;7.10;99.90;;;;;;4953249;29;20212;-88
2020/12/22 03:01:57;;;;;;;0.50;0.50;;;7.20;99.90;;;;;;4953201;29;20621;-89
2020/12/22 03:04:23;;;;;;;0.40;0.40;;;7.10;99.90;;;;;;4953252;29;20199;-89
2020/12/22 03:06:49;;;;;;;0.50;0.50;;;6.90;99.90;;;;;;4952995;29;20648;-88
2020/12/22 03:09:17;;;;;;;0.47;0.47;;;7.20;99.90;;;;;;4952432;28;20208;-89
2020/12/22 03:11:44;;;;;;;0.45;0.45;;;7.10;99.90;;;;;;4953240;29;20207;-88
2020/12/22 03:14:11;;;;;;;0.40;0.40;;;7.10;99.90;;;;;;4952866;29;20223;-88
2020/12/22 03:16:39;;;;;;;0.40;0.40;;;7.20;99.90;;;;;;4952668;29;20679;-89
2020/12/22 03:19:10;;;;;;;0.40;0.40;;;7.30;99.90;;;;;;4953071;29;21011;-87
2020/12/22 03:21:36;;;;;;;0.40;0.40;;;7.30;99.90;;;;;;4952888;29;20493;-88
2020/12/22 03:24:02;;;;;;;0.40;0.40;;;7.30;99.90;;;;;;4952816;29;20200;-87
2020/12/22 03:26:30;;;;;;;0.40;0.40;;;7.90;99.90;;;;;;4953096;29;20562;-88
2020/12/22 03:28:58;;;;;;;0.40;0.40;;;8.40;99.90;;;;;;4953028;29;20219;-87
2020/12/22 03:31:24;;;;;;;0.40;0.40;;;8.30;99.90;;;;;;4952598;29;20211;-88
2020/12/22 03:33:50;;;;;;;0.47;0.47;;;7.40;99.90;;;;;;4952796;29;20223;-88
2020/12/22 03:36:18;;;;;;;0.40;0.40;;;7.10;99.90;;;;;;4952850;29;20746;-89
2020/12/22 03:38:45;;;;;;;0.40;0.40;;;7.50;99.90;;;;;;4950089;29;20928;-88
2020/12/22 03:41:13;;;;;;;0.40;0.40;;;7.60;99.90;;;;;;4950678;29;20204;-88
2020/12/22 03:43:39;;;;;;;0.40;0.40;;;7.60;99.90;;;;;;4951204;29;20686;-87
2020/12/22 03:46:07;;;;;;;0.40;0.40;;;7.60;99.90;;;;;;4951605;29;20263;-88
2020/12/22 03:48:36;;;;;;;0.40;0.40;;;7.50;99.90;;;;;;4951211;29;20218;-88
2020/12/22 03:51:02;;;;;;;0.40;0.40;;;7.70;99.90;;;;;;4951525;29;20204;-86
2020/12/22 03:53:31;;;;;;;0.40;0.40;;;7.70;99.90;;;;;;4951136;29;20714;-86
2020/12/22 03:55:57;;;;;;;0.40;0.40;;;7.80;99.90;;;;;;4951380;29;20660;-86
2020/12/22 03:58:24;;;;;;;0.40;0.40;;;7.90;99.90;;;;;;4951129;29;20215;-86
2020/12/22 04:00:50;;;;;;;0.40;0.40;;;7.80;99.90;;;;;;4950907;29;20545;-86
2020/12/22 04:03:20;;;;;;;0.40;0.40;;;7.90;99.90;;;;;;4951157;29;20242;-86
2020/12/22 04:05:46;;;;;;;0.40;0.40;;;8.00;99.90;;;;;;4950999;29;20201;-85
2020/12/22 04:08:12;;;;;;;0.40;0.40;;;8.00;99.90;;;;;;4950853;29;20566;-86
2020/12/22 04:10:38;;;;;;;0.40;0.40;;;8.00;99.90;;;;;;4951194;29;20247;-86
2020/12/22 04:13:04;;;;;;;0.43;0.43;;;8.10;99.90;;;;;;4951143;29;20299;-86
2020/12/22 04:15:30;;;;;;;0.40;0.40;;;8.10;99.90;;;;;;4950864;29;20215;-85
2020/12/22 04:17:57;;;;;;;0.40;0.40;;;8.10;99.90;;;;;;4951039;29;20219;-85
2020/12/22 04:20:26;;;;;;;0.50;0.50;;;8.20;99.90;;;;;;4952163;28;20211;-86
2020/12/22 04:22:52;;;;;;;0.40;0.40;;;8.30;99.90;;;;;;4954611;29;20216;-85
2020/12/22 04:25:20;;;;;;;0.40;0.40;;;8.30;99.90;;;;;;4954381;29;20207;-85
2020/12/22 04:27:49;;;;;;;0.40;0.40;;;8.30;99.90;;;;;;4954930;29;20203;-86
2020/12/22 04:30:15;;;;;;;0.40;0.40;;;8.40;99.90;;;;;;4953703;29;20561;-86
2020/12/22 04:32:41;;;;;;;0.40;0.40;;;8.10;99.90;;;;;;4954148;29;20672;-86
2020/12/22 04:35:15;;;;;;;0.40;0.40;;;9.30;99.90;;;;;;4955620;29;20602;-86
2020/12/22 04:37:42;;;;;;;0.40;0.40;;;8.40;99.90;;;;;;4955931;29;20466;-86
2020/12/22 04:40:11;;;;;;;0.40;0.40;;;9.60;99.90;;;;;;4955438;29;20581;-86
2020/12/22 04:42:37;;;;;;;0.40;0.40;;;8.60;99.90;;;;;;4955686;29;20652;-86
2020/12/22 04:45:05;;;;;;;0.40;0.40;;;8.60;99.90;;;;;;4955707;29;20212;-85
2020/12/22 04:47:37;;;;;;;0.40;0.40;;;9.20;99.90;;;;;;4955496;29;20637;-86
2020/12/22 04:50:07;;;;;;;0.40;0.40;;;8.70;99.90;;;;;;4955727;29;20208;-86
2020/12/22 04:52:34;;;;;;;0.40;0.40;;;8.70;99.90;;;;;;4955479;29;20675;-85
2020/12/22 04:55:04;;;;;;;0.40;0.40;;;8.50;99.90;;;;;;4955005;29;20231;-86
2020/12/22 04:57:31;;;;;;;0.40;0.40;;;8.50;99.90;;;;;;4955898;29;20207;-86
2020/12/22 04:59:58;;;;;;;0.40;0.40;;;8.90;99.90;;;;;;4955373;29;20211;-86
2020/12/22 05:02:27;;;;;;;0.40;0.40;;;8.90;99.90;;;;;;4954904;29;20232;-86
2020/12/22 05:04:56;;;;;;;0.40;0.40;;;9.00;99.90;;;;;;4955087;29;20222;-86
2020/12/22 05:07:23;;;;;;;0.40;0.40;;;9.20;99.90;;;;;;4955304;29;20401;-86
2020/12/22 05:09:49;;;;;;;0.40;0.40;;;9.10;99.90;;;;;;4954310;29;20200;-86
2020/12/22 05:12:19;;;;;;;0.40;0.40;;;9.10;99.90;;;;;;4954636;29;20596;-86
2020/12/22 05:14:45;;;;;;;0.40;0.40;;;9.20;99.90;;;;;;4954936;29;20622;-86
2020/12/22 05:17:16;;;;;;;0.40;0.40;;;9.20;99.90;;;;;;4955235;29;20750;-85
2020/12/22 05:19:43;;;;;;;0.40;0.40;;;9.30;99.90;;;;;;4954913;29;20672;-85
2020/12/22 05:22:09;;;;;;;0.40;0.40;;;9.30;99.90;;;;;;4954981;29;20207;-85
2020/12/22 05:24:36;;;;;;;0.40;0.40;;;9.30;99.90;;;;;;4954922;29;20215;-85
2020/12/22 05:27:03;;;;;;;0.40;0.40;;;9.30;99.90;;;;;;4954781;29;20212;-85
2020/12/22 05:29:32;;;;;;;0.40;0.40;;;9.50;99.90;;;;;;4954453;29;20212;-85
2020/12/22 05:32:06;;;;;;;0.40;0.40;;;9.30;99.90;;;;;;4954234;28;20216;-84
2020/12/22 05:34:32;;;;;;;0.40;0.40;;;9.40;99.90;;;;;;4954615;29;20227;-84
2020/12/22 05:37:00;;;;;;;0.40;0.40;;;9.50;99.90;;;;;;4954975;29;20234;-85
2020/12/22 05:39:27;;;;;;;0.40;0.40;;;9.50;99.90;;;;;;4954823;29;20220;-85
2020/12/22 05:41:53;;;;;;;0.40;0.40;;;9.50;99.90;;;;;;4954462;29;20214;-85
2020/12/22 05:44:23;;;;;;;0.50;0.50;;;9.60;99.90;;;;;;4954636;29;20600;-85
2020/12/22 05:46:52;;;;;;;0.40;0.40;;;9.60;99.90;;;;;;4954663;29;20230;-85
2020/12/22 05:49:19;;;;;;;0.40;0.40;;;9.60;99.90;;;;;;4954350;29;20236;-85
2020/12/22 05:51:47;;;;;;;0.43;0.43;;;9.70;99.90;;;;;;4954391;29;20643;-85
2020/12/22 05:54:15;;;;;;;0.40;0.40;;;9.80;99.90;;;;;;4954615;29;20224;-85
2020/12/22 05:56:41;;;;;;;0.40;0.40;;;9.80;99.90;;;;;;4954009;29;20259;-85
2020/12/22 05:59:16;;;;;;;0.50;0.50;;;9.90;99.90;;;;;;4954230;29;20284;-85
2020/12/22 06:01:42;;;;;;;0.40;0.40;;;9.90;99.90;;;;;;4954012;29;20230;-86
2020/12/22 06:04:15;;;;;;;0.40;0.40;;;9.90;99.90;;;;;;4954134;29;20234;-85
2020/12/22 06:06:47;;;;;;;0.40;0.40;;;9.90;99.90;;;;;;4954163;29;20245;-85
2020/12/22 06:09:13;;;;;;;0.40;0.40;;;9.90;99.90;;;;;;4954105;29;20295;-86
2020/12/22 06:11:41;;;;;;;0.40;0.40;;;10.00;99.90;;;;;;4954063;29;20591;-85
2020/12/22 06:14:11;;;;;;;0.40;0.40;;;10.10;99.90;;;;;;4954186;29;20586;-85
2020/12/22 06:16:41;;;;;;;0.40;0.40;;;10.10;99.90;;;;;;4953754;29;20588;-85
2020/12/22 06:19:10;;;;;;;0.40;0.40;;;10.10;99.90;;;;;;4954186;29;20591;-85
2020/12/22 06:21:37;;;;;;;0.40;0.40;;;10.10;99.90;;;;;;4953798;29;20308;-85
2020/12/22 06:24:03;;;;;;;0.40;0.40;;;10.20;99.90;;;;;;4953599;29;20204;-85
2020/12/22 06:26:29;;;;;;;0.40;0.40;;;10.20;99.90;;;;;;4953520;29;20228;-85
2020/12/22 06:28:55;;;;;;;0.40;0.40;;;10.20;99.90;;;;;;4953693;29;20211;-86
2020/12/22 06:31:24;;;;;;;0.40;0.40;;;10.30;99.90;;;;;;4953771;29;20208;-86
2020/12/22 06:33:51;;;;;;;0.40;0.40;;;10.30;99.90;;;;;;4953332;29;20208;-85
2020/12/22 06:36:19;;;;;;;0.40;0.40;;;10.30;99.90;;;;;;4953682;29;20207;-85
2020/12/22 06:38:58;;;;;;;0.43;0.43;;;10.40;99.90;;;;;;4953582;29;20212;-85
2020/12/22 06:41:48;;;;;;;0.40;0.40;;;10.40;99.90;;;;;;4953684;29;20236;-85
2020/12/22 06:44:26;;;;;;;0.40;0.40;;;10.40;99.90;;;;;;4952796;28;20211;-84
2020/12/22 06:46:56;;;;;;;0.50;0.50;;;10.50;99.90;;;;;;4953624;29;20216;-85
2020/12/22 06:49:48;;;;;;;0.40;0.40;;;10.30;99.90;;;;;;4953097;29;20608;-85
2020/12/22 06:52:31;;;;;;;0.40;0.40;;;10.60;99.90;;;;;;4953124;29;20337;-85
2020/12/22 06:55:05;;;;;;;0.45;0.45;;;10.60;99.90;;;;;;4952887;29;20630;-85
2020/12/22 06:57:47;;;;;;;0.40;0.40;;;10.60;99.90;;;;;;4953437;29;20215;-85
2020/12/22 07:00:39;;;;;;;0.40;0.40;;;10.50;99.90;;;;;;4953453;29;20215;-86
2020/12/22 07:03:13;;;;;;;0.40;0.40;;;10.70;99.90;;;;;;4954420;29;20239;-85
2020/12/22 07:05:40;;;;;;;0.40;0.40;;;10.00;99.90;;;;;;4954264;29;20766;-84
2020/12/22 07:08:07;;;;;;;0.40;0.40;;;10.90;99.90;;;;;;4953529;29;20207;-84
2020/12/22 07:10:41;;;;;;;0.40;0.40;;;11.00;99.90;;;;;;4953154;29;20215;-85
2020/12/22 07:13:09;;;;;;;0.40;0.40;;;11.00;99.90;;;;;;4954186;29;20263;-85
2020/12/22 07:15:36;;;;;;;0.40;0.40;;;11.00;99.90;;;;;;4953223;29;20281;-85
2020/12/22 07:18:11;;;;;;;0.40;0.40;;;11.10;99.90;;;;;;4951553;29;20222;-85
2020/12/22 07:20:40;;;;;;;0.40;0.40;;;11.10;99.90;;;;;;4952819;29;20719;-85
2020/12/22 07:23:25;;;;;;;0.40;0.40;;;11.20;99.90;;;;;;4953050;29;20207;-86
2020/12/22 07:26:54;;;;;;;0.40;0.40;;;11.20;99.90;;;;;;4953894;29;20244;-85
2020/12/22 07:34:01;;;;;;;0.40;0.40;;;11.60;99.90;;;;;;4852528;29;20218;-86
2020/12/22 07:40:07;;;;;;;0.40;0.40;;;10.90;99.90;;;;;;4819535;29;20214;-86
2020/12/22 07:46:28;;;;;;;0.40;0.40;;;11.60;99.90;;;;;;4765005;30;20283;-86
2020/12/22 07:49:16;;;;;;;0.40;0.40;;;11.50;99.90;;;;;;4802932;29;20220;-86
2020/12/22 07:55:27;;;;;;;;;;;;;;;;;;;;;
2020/12/22 08:01:41;;;;;;;0.40;0.40;;;11.40;99.90;;;;;;4951004;29;20215;-86
2020/12/22 08:34:20;;;;;;;0.40;0.40;;;11.50;99.90;;;;;;4805337;29;20305;-87
2020/12/22 08:37:17;;;;;;;0.40;0.40;;;12.00;99.90;;;;;;4819184;29;20724;-86
2020/12/22 09:15:04;;;;;;;0.40;0.40;;;12.80;99.90;;;;;;4935648;29;20260;-87
2020/12/22 09:17:34;;;;;;;0.40;0.40;;;11.30;99.90;;;;;;4937476;29;20223;-86
2020/12/22 09:20:04;;;;;;;0.40;0.40;;;13.00;99.90;;;;;;4937210;29;20210;-86
2020/12/22 09:22:32;;;;;;;0.40;0.40;;;12.00;99.90;;;;;;4937385;29;20235;-86
2020/12/22 09:25:04;;;;;;;0.40;0.40;;;11.70;99.90;;;;;;4937319;29;20200;-86
2020/12/22 09:27:34;;;;;;;0.50;0.50;;;11.90;99.90;;;;;;4937245;29;20260;-86
2020/12/22 09:30:03;;;;;;;0.40;0.40;;;11.50;99.90;;;;;;4937068;29;20219;-86
2020/12/22 09:32:29;;;;;;;0.50;0.50;;;12.60;99.90;;;;;;4937104;29;20223;-86
2020/12/22 09:34:56;;;;;;;0.50;0.50;;;11.90;99.90;;;;;;4936228;29;20243;-86
2020/12/22 09:37:26;;;;;;;0.45;0.45;;;11.90;99.90;;;;;;4936252;29;20209;-86
2020/12/22 09:39:53;;;;;;;0.40;0.40;;;11.90;99.90;;;;;;4936411;29;20211;-85
2020/12/22 09:42:20;;;;;;;0.50;0.50;;;11.90;99.90;;;;;;4936145;29;20239;-87
2020/12/22 09:44:47;;;;;;;0.40;0.40;;;11.90;99.90;;;;;;4936061;29;20200;-86
2020/12/22 09:47:16;;;;;;;0.40;0.40;;;11.90;99.90;;;;;;4935905;29;20223;-86
2020/12/22 09:49:42;;;;;;;0.40;0.40;;;11.90;99.90;;;;;;4935631;29;20215;-86
2020/12/22 09:52:09;;;;;;;0.40;0.40;;;11.90;99.90;;;;;;4936255;29;20555;-86
2020/12/22 09:54:41;;;;;;;0.40;0.40;;;11.90;99.90;;;;;;4936605;29;20569;-85
2020/12/22 09:57:12;;;;;;;0.40;0.40;;;11.90;99.90;;;;;;4936087;29;20204;-87
2020/12/22 09:59:39;;;;;;;0.40;0.40;;;12.70;99.90;;;;;;4935545;29;20208;-86
2020/12/22 10:02:08;;;;;;;0.50;0.50;;;11.90;99.90;;;;;;4935354;29;20215;-86
2020/12/22 10:04:39;;;;;;;0.40;0.40;;;11.90;99.90;;;;;;4942433;29;20742;-86
2020/12/22 10:07:05;;;;;;;0.40;0.40;;;11.90;99.90;;;;;;4952924;29;20299;-86
2020/12/22 10:09:37;;;;;;;0.40;0.40;;;11.90;99.90;;;;;;4938416;29;20657;-87
2020/12/22 10:12:06;;;;;;;0.40;0.40;;;12.90;99.90;;;;;;4954965;29;20241;-87
2020/12/22 10:14:38;;;;;;;0.40;0.40;;;11.90;99.90;;;;;;4954669;29;20246;-87
2020/12/22 10:17:04;;;;;;;0.40;0.40;;;12.00;99.90;;;;;;4953535;28;20200;-88
2020/12/22 10:19:38;;;;;;;0.40;0.40;;;11.80;99.90;;;;;;4952948;29;20208;-88
2020/12/22 10:22:05;;;;;;;0.50;0.50;;;11.90;99.90;;;;;;4953430;29;20214;-87
2020/12/22 10:24:31;;;;;;;0.50;0.50;;;11.90;99.90;;;;;;4954732;29;20280;-88
2020/12/22 10:27:00;;;;;;;0.40;0.40;;;12.60;99.90;;;;;;4954636;29;20638;-88
2020/12/22 10:29:28;;;;;;;0.50;0.50;;;12.00;99.90;;;;;;4955008;29;20215;-87
2020/12/22 10:31:58;;;;;;;0.40;0.40;;;12.90;99.90;;;;;;4954546;29;20207;-87
2020/12/22 10:34:29;;;;;;;0.40;0.40;;;11.80;99.90;;;;;;4954821;29;20263;-87
2020/12/22 10:37:04;;;;;;;0.50;0.50;;;11.90;99.90;;;;;;4954799;29;20842;-87
2020/12/22 10:39:30;;;;;;;0.40;0.40;;;13.10;99.90;;;;;;4954578;29;20219;-88
2020/12/22 10:41:59;;;;;;;0.50;0.50;;;12.00;99.90;;;;;;4954111;29;20204;-88
2020/12/22 10:45:07;;;;;;;0.47;0.47;;;12.00;99.90;;;;;;4954440;29;20214;-88
2020/12/22 10:47:36;;;;;;;0.50;0.50;;;11.30;99.90;;;;;;4954309;29;20570;-87
2020/12/22 10:50:06;;;;;;;0.50;0.50;;;13.00;99.90;;;;;;4914673;28;20641;-87
2020/12/22 10:52:33;;;;;;;0.50;0.50;;;11.90;99.90;;;;;;4920655;29;20205;-87
2020/12/22 10:55:00;;;;;;;0.40;0.40;;;13.40;99.90;;;;;;4933460;29;20330;-87
2020/12/22 10:57:29;;;;;;;0.50;0.50;;;11.90;99.90;;;;;;4934869;29;20217;-88
2020/12/22 10:59:55;;;;;;;0.40;0.40;;;12.50;99.90;;;;;;4934200;29;20216;-86
2020/12/22 11:02:22;;;;;;;0.40;0.40;;;11.90;99.90;;;;;;4934608;29;20208;-86
2020/12/22 11:04:48;;;;;;;0.47;0.47;;;11.90;99.90;;;;;;4934602;29;20239;-86
2020/12/22 11:07:20;;;;;;;0.45;0.45;;;11.90;99.90;;;;;;4933715;29;20271;-87
2020/12/22 11:09:50;;;;;;;0.50;0.50;;;11.90;99.90;;;;;;4933836;29;20252;-87
2020/12/22 11:12:20;;;;;;;0.40;0.40;;;11.90;99.90;;;;;;4933693;29;20539;-86
2020/12/22 11:14:46;;;;;;;0.40;0.40;;;12.00;99.90;;;;;;4933568;29;20232;-86
2020/12/22 11:17:15;;;;;;;0.50;0.50;;;11.90;99.90;;;;;;4940241;29;20688;-86
2020/12/22 11:19:41;;;;;;;0.40;0.40;;;11.90;99.90;;;;;;4942155;29;20215;-86
2020/12/22 11:22:08;;;;;;;0.43;0.43;;;12.00;99.90;;;;;;4943787;29;20200;-86
2020/12/22 11:24:39;;;;;;;0.50;0.50;;;12.10;99.90;;;;;;4938189;29;20200;-87
2020/12/22 11:27:07;;;;;;;0.50;0.50;;;12.10;99.90;;;;;;4932150;29;20216;-87
2020/12/22 11:29:33;;;;;;;0.50;0.50;;;12.10;99.90;;;;;;4941260;29;20229;-86
2020/12/22 11:31:59;;;;;;;0.50;0.50;;;12.00;99.90;;;;;;4934999;29;20203;-86
2020/12/22 11:34:25;;;;;;;0.45;0.45;;;12.00;99.90;;;;;;4947969;29;20232;-87
2020/12/22 11:36:53;;;;;;;0.40;0.40;;;11.70;99.90;;;;;;4934332;29;20238;-87
2020/12/22 11:39:20;;;;;;;0.40;0.40;;;12.70;99.90;;;;;;4935596;29;20321;-86
2020/12/22 11:41:48;;;;;;;0.50;0.50;;;11.90;99.90;;;;;;4936908;29;20675;-86
2020/12/22 11:44:15;;;;;;;0.40;0.40;;;11.90;99.90;;;;;;4934449;29;20229;-86
2020/12/22 11:46:45;;;;;;;0.40;0.40;;;11.90;99.90;;;;;;4934110;29;20208;-87
2020/12/22 11:49:15;;;;;;;0.40;0.40;;;13.20;99.90;;;;;;4934094;29;20216;-86
2020/12/22 11:51:41;;;;;;;0.40;0.40;;;12.00;99.90;;;;;;4931811;29;20359;-86
2020/12/22 11:54:11;;;;;;;0.47;0.47;;;12.00;99.90;;;;;;4931406;29;20846;-86
2020/12/22 11:56:37;;;;;;;0.50;0.50;;;12.00;99.90;;;;;;4933554;29;20212;-86
2020/12/22 11:59:04;;;;;;;0.40;0.40;;;11.90;99.90;;;;;;4933697;29;20213;-87
2020/12/22 12:01:39;;;;;;;0.40;0.40;;;11.80;99.90;;;;;;4934480;29;20314;-86
2020/12/22 12:04:05;;;;;;;0.40;0.40;;;11.90;99.90;;;;;;4933378;29;20754;-86
2020/12/22 12:06:31;;;;;;;0.43;0.43;;;11.80;99.90;;;;;;4934482;29;20285;-86
2020/12/22 12:09:00;;;;;;;0.50;0.50;;;11.70;99.90;;;;;;4933021;29;20537;-86
2020/12/22 12:11:29;;;;;;;0.50;0.50;;;11.80;99.90;;;;;;4932507;29;20239;-86
2020/12/22 12:13:57;;;;;;;0.40;0.40;;;11.70;99.90;;;;;;4933400;29;20239;-86
2020/12/22 12:16:23;;;;;;;0.40;0.40;;;11.70;99.90;;;;;;4934121;29;20216;-86
2020/12/22 12:18:55;;;;;;;0.40;0.40;;;11.50;99.90;;;;;;4933432;29;20816;-86
2020/12/22 12:21:24;;;;;;;0.50;0.50;;;11.40;99.90;;;;;;4933339;29;20212;-86
2020/12/22 12:23:50;;;;;;;0.50;0.50;;;11.30;99.90;;;;;;4933588;29;20212;-87
2020/12/22 12:26:16;;;;;;;0.45;0.45;;;10.90;99.90;;;;;;4933672;29;20246;-86
2020/12/22 12:28:43;;;;;;;0.45;0.45;;;10.90;99.90;;;;;;4934342;29;20219;-87
2020/12/22 12:31:16;;;;;;;0.40;0.40;;;10.80;99.90;;;;;;4945099;29;20220;-85
2020/12/22 12:33:44;;;;;;;0.40;0.40;;;10.60;99.90;;;;;;4942727;29;20263;-86
2020/12/22 12:36:18;;;;;;;0.50;0.50;;;10.40;99.90;;;;;;4951282;29;20211;-87
2020/12/22 12:38:47;;;;;;;0.50;0.50;;;10.90;99.90;;;;;;4952006;29;20226;-88
2020/12/22 12:41:16;;;;;;;0.40;0.40;;;10.20;99.90;;;;;;4933558;29;20204;-87
2020/12/22 12:43:44;;;;;;;0.50;0.50;;;10.40;99.90;;;;;;4955304;29;20210;-87
2020/12/22 12:46:11;;;;;;;0.50;0.50;;;10.00;99.90;;;;;;4956943;29;20562;-86
2020/12/22 12:48:42;;;;;;;0.50;0.50;;;9.80;99.90;;;;;;4957375;29;20267;-87
2020/12/22 12:51:09;;;;;;;0.40;0.40;;;10.20;99.90;;;;;;4956433;29;20207;-88
2020/12/22 12:53:40;;;;;;;0.40;0.40;;;10.20;99.90;;;;;;4938417;29;20223;-88
2020/12/22 12:56:11;;;;;;;0.40;0.40;;;10.10;99.90;;;;;;4937651;29;20240;-87
2020/12/22 12:58:37;;;;;;;0.50;0.50;;;10.00;99.90;;;;;;4938371;29;20212;-87
2020/12/22 13:01:03;;;;;;;0.40;0.40;;;9.60;99.90;;;;;;4935907;29;21149;-87
2020/12/22 13:03:29;;;;;;;0.50;0.50;;;10.00;99.90;;;;;;4936548;29;20208;-87
2020/12/22 13:05:56;;;;;;;0.50;0.50;;;11.10;99.90;;;;;;4937609;29;20849;-87
2020/12/22 13:08:22;;;;;;;0.50;0.50;;;9.70;99.90;;;;;;4936868;29;20699;-87
2020/12/22 13:10:59;;;;;;;0.50;0.50;;;9.70;99.90;;;;;;4937877;29;20570;-87
2020/12/22 13:13:28;;;;;;;0.50;0.50;;;9.40;99.90;;;;;;4937628;29;20212;-87
2020/12/22 13:15:54;;;;;;;0.50;0.50;;;9.60;99.90;;;;;;4937473;29;20251;-86
2020/12/22 13:18:20;;;;;;;0.50;0.50;;;9.50;99.90;;;;;;4936763;29;20208;-86
2020/12/22 13:20:46;;;;;;;0.50;0.50;;;9.60;99.90;;;;;;4936294;29;20208;-87
2020/12/22 13:23:13;;;;;;;0.50;0.50;;;9.00;99.90;;;;;;4936558;29;20212;-87
2020/12/22 13:25:39;;;;;;;0.50;0.50;;;9.10;99.90;;;;;;4936252;29;20213;-87
2020/12/22 13:28:06;;;;;;;0.50;0.50;;;9.40;99.90;;;;;;4936384;29;20212;-87
2020/12/22 13:30:33;;;;;;;0.50;0.50;;;9.30;99.90;;;;;;4936238;29;20366;-86
2020/12/22 13:32:59;;;;;;;0.50;0.50;;;9.30;99.90;;;;;;4936233;29;20267;-87
2020/12/22 13:35:25;;;;;;;0.40;0.40;;;9.10;99.90;;;;;;4936192;29;20238;-86
2020/12/22 13:37:52;;;;;;;0.50;0.50;;;9.20;99.90;;;;;;4935824;29;20219;-87
2020/12/22 13:40:18;;;;;;;0.40;0.40;;;9.10;99.90;;;;;;4936150;29;20268;-87
2020/12/22 13:42:44;;;;;;;0.50;0.50;;;10.50;99.90;;;;;;4936802;29;20251;-88
2020/12/22 13:45:12;;;;;;;0.40;0.40;;;9.20;99.90;;;;;;4936138;29;20212;-87
2020/12/22 13:47:38;;;;;;;0.40;0.40;;;9.00;99.90;;;;;;4937538;29;20204;-87
2020/12/22 13:50:04;;;;;;;0.50;0.50;;;10.30;99.90;;;;;;4937044;29;20204;-84
2020/12/22 13:52:31;;;;;;;0.50;0.50;;;9.00;99.90;;;;;;4937047;29;20287;-87
2020/12/22 13:54:58;;;;;;;0.50;0.50;;;9.80;99.90;;;;;;4936986;29;20672;-87
2020/12/22 13:57:24;;;;;;;0.43;0.43;;;9.80;99.90;;;;;;4936939;29;20200;-86
2020/12/22 13:59:50;;;;;;;0.50;0.50;;;8.50;99.90;;;;;;4934865;29;20208;-87
2020/12/22 14:02:23;;;;;;;0.47;0.47;;;9.10;99.90;;;;;;4953561;29;20263;-86
2020/12/22 14:04:50;;;;;;;0.40;0.40;;;8.80;99.90;;;;;;4954545;29;20231;-87
2020/12/22 14:07:16;;;;;;;0.50;0.50;;;9.00;99.90;;;;;;4955123;29;20207;-87
2020/12/22 14:09:42;;;;;;;0.47;0.47;;;9.00;99.90;;;;;;4954781;29;20212;-87
2020/12/22 14:12:11;;;;;;;0.50;0.50;;;8.90;99.90;;;;;;4956054;29;20204;-86
2020/12/22 14:14:37;;;;;;;0.50;0.50;;;9.00;99.90;;;;;;4956144;29;20232;-87
2020/12/22 14:17:04;;;;;;;0.50;0.50;;;8.70;99.90;;;;;;4956009;29;20215;-87
2020/12/22 14:19:31;;;;;;;0.50;0.50;;;9.90;99.90;;;;;;4956221;29;20203;-87
2020/12/22 14:21:57;;;;;;;0.50;0.50;;;8.80;99.90;;;;;;4955825;29;20204;-87
2020/12/22 14:24:26;;;;;;;0.50;0.50;;;9.40;99.90;;;;;;4955805;29;20204;-87
2020/12/22 14:26:52;;;;;;;0.40;0.40;;;8.90;99.90;;;;;;4955928;29;20229;-87
2020/12/22 14:29:27;;;;;;;0.50;0.50;;;8.80;99.90;;;;;;4955603;29;20655;-87
2020/12/22 14:31:54;;;;;;;0.40;0.40;;;9.40;99.90;;;;;;4955736;29;20191;-87